Old Brazoria, Texas
Current Conditions -  °F | °C
As of 7:53 AM on Thursday 27 Nov 2014 (Local Time) from KLBX Reporting Station
NA  
Wind Chill: 50°   Ceiling: NA
Heat Index: 50°   Visibility: 10mi
Dew Point: 40°   Wind: 13mph
Humidity: 68%   Direction: 40°NE
Pressure: 30.45"   Gusts: NA
Location:  28.9272°N, 95.5834°W
Report Text: KLBX 271353Z AUTO 04011KT 10SM 10/04 A3045 RMK AO2 SLP312 T01000044 $
Loading
Personal Weather Stations






























Interactive Weather Map New forecast layout! Learn more

10-Day Weather Forecast

Advertisements
Track Severe Weather on mobile